Time;durP1;ratioP1;P1;durP2;ratioP2;P2;SDS_P1;SDS_P2;PMS_P1;PMS_P2;Temp;Humidity;BMP_temperature;BMP_pressure;BME280_temperature;BME280_humidity;BME280_pressure;Samples;Min_cycle;Max_cycle;Signal;HPM_P1;HPM_P2
2023/12/30 00:01:44;;;;;;;491.90;453.30;;;5.20;99.90;;;;;;5043506;28;20060;-75
2023/12/30 00:04:09;;;;;;;396.23;368.60;;;5.20;99.90;;;;;;5027491;28;20049;-75
2023/12/30 00:06:35;;;;;;;543.07;498.43;;;5.20;99.90;;;;;;5033474;28;20442;-75
2023/12/30 00:09:01;;;;;;;392.23;364.27;;;5.20;99.90;;;;;;5031091;28;20041;-74
2023/12/30 00:11:26;;;;;;;501.67;462.57;;;5.20;99.90;;;;;;5048768;28;20049;-75
2023/12/30 00:13:52;;;;;;;421.40;392.03;;;5.30;99.90;;;;;;5053740;28;20041;-75
2023/12/30 00:16:18;;;;;;;513.50;473.63;;;5.30;99.90;;;;;;5052869;28;20047;-75
2023/12/30 00:18:43;;;;;;;515.93;474.37;;;5.30;99.90;;;;;;5049011;28;20045;-75
2023/12/30 00:21:17;;;;;;;661.07;592.57;;;5.30;99.90;;;;;;5029468;28;20131;-75
2023/12/30 00:23:43;;;;;;;472.95;435.75;;;5.30;99.90;;;;;;5045428;28;20041;-74
2023/12/30 00:26:21;;;;;;;464.80;428.70;;;5.30;99.90;;;;;;5046002;28;20509;-74
2023/12/30 00:28:48;;;;;;;504.60;465.17;;;5.30;99.90;;;;;;5036077;28;20040;-74
2023/12/30 00:31:24;;;;;;;352.25;328.40;;;5.30;99.90;;;;;;5029490;28;20148;-74
2023/12/30 00:33:51;;;;;;;453.60;419.85;;;5.30;99.90;;;;;;5042937;28;20136;-74
2023/12/30 00:36:17;;;;;;;490.65;452.77;;;5.20;99.90;;;;;;5044738;28;20036;-74
2023/12/30 00:38:43;;;;;;;518.00;474.80;;;5.20;99.90;;;;;;5047391;28;20068;-75
2023/12/30 00:41:09;;;;;;;471.30;430.57;;;5.20;99.90;;;;;;5041459;28;20291;-75
2023/12/30 00:43:37;;;;;;;549.97;503.70;;;5.20;99.90;;;;;;5048615;28;20052;-74
2023/12/30 00:46:02;;;;;;;539.15;493.70;;;5.20;99.90;;;;;;5022316;28;20025;-75
2023/12/30 00:48:28;;;;;;;494.63;455.03;;;5.30;99.90;;;;;;5049006;28;20058;-75
2023/12/30 00:50:54;;;;;;;469.83;433.30;;;5.30;99.90;;;;;;5053099;28;20032;-75
2023/12/30 00:53:20;;;;;;;539.77;493.30;;;5.20;99.90;;;;;;5049643;28;20127;-75
2023/12/30 00:55:46;;;;;;;438.40;404.83;;;5.30;99.90;;;;;;5043333;28;20055;-74
2023/12/30 00:58:11;;;;;;;579.60;530.03;;;5.30;99.90;;;;;;5061741;28;20366;-76
2023/12/30 01:00:37;;;;;;;498.23;460.33;;;5.30;99.90;;;;;;5044977;28;20300;-75
2023/12/30 01:03:03;;;;;;;461.90;422.10;;;5.30;99.90;;;;;;5050285;28;20117;-75
2023/12/30 01:05:29;;;;;;;377.10;349.80;;;5.30;99.90;;;;;;5050341;28;20044;-74
2023/12/30 01:07:54;;;;;;;389.17;360.83;;;5.20;99.90;;;;;;5032120;28;20025;-75
2023/12/30 01:10:20;;;;;;;440.97;407.07;;;5.20;99.90;;;;;;5029510;28;20067;-76
2023/12/30 01:12:46;;;;;;;391.30;362.93;;;5.20;99.90;;;;;;5047160;28;20037;-75
2023/12/30 01:15:12;;;;;;;408.30;378.70;;;5.20;99.90;;;;;;5029696;28;20112;-75
2023/12/30 01:17:37;;;;;;;375.33;349.13;;;5.20;99.90;;;;;;5040981;28;20044;-75
2023/12/30 01:20:04;;;;;;;360.83;334.03;;;5.20;99.90;;;;;;5029777;28;20036;-75
2023/12/30 01:22:30;;;;;;;435.30;402.90;;;5.20;99.90;;;;;;5018100;28;20060;-75
2023/12/30 01:24:55;;;;;;;522.27;479.77;;;5.20;99.90;;;;;;5047523;28;20033;-75
2023/12/30 01:27:21;;;;;;;546.87;502.93;;;5.10;99.90;;;;;;5045619;28;20683;-75
2023/12/30 01:29:47;;;;;;;562.27;513.83;;;5.10;99.90;;;;;;5043540;28;20413;-74
2023/12/30 01:32:12;;;;;;;466.00;430.57;;;5.20;99.90;;;;;;5030686;28;20138;-74
2023/12/30 01:34:38;;;;;;;493.97;455.33;;;5.20;99.90;;;;;;5042701;28;20038;-73
2023/12/30 01:37:04;;;;;;;383.23;356.17;;;5.30;99.90;;;;;;5028821;28;20044;-74
2023/12/30 01:39:29;;;;;;;594.97;537.63;;;5.40;99.90;;;;;;5030334;28;20045;-74
2023/12/30 01:41:55;;;;;;;513.37;473.13;;;5.40;99.90;;;;;;5046863;28;20124;-74
2023/12/30 01:44:21;;;;;;;516.03;474.00;;;5.40;99.90;;;;;;5046809;28;20040;-74
2023/12/30 01:46:48;;;;;;;557.47;510.13;;;5.40;99.90;;;;;;5046612;28;20047;-74
2023/12/30 01:49:14;;;;;;;519.53;474.90;;;5.50;99.90;;;;;;5046713;28;20150;-74
2023/12/30 01:51:40;;;;;;;566.95;519.75;;;5.50;99.90;;;;;;5042433;28;20125;-74
2023/12/30 01:54:06;;;;;;;488.50;449.40;;;5.60;99.90;;;;;;5044826;28;20566;-74
2023/12/30 01:56:32;;;;;;;620.55;567.08;;;5.60;99.90;;;;;;5039846;28;20079;-73
2023/12/30 01:58:59;;;;;;;639.92;574.00;;;5.70;99.90;;;;;;5042552;28;20083;-73
2023/12/30 02:01:28;;;;;;;448.73;414.67;;;5.70;99.90;;;;;;5037385;28;20052;-74
2023/12/30 02:03:55;;;;;;;882.35;716.83;;;5.70;99.50;;;;;;5044717;28;20043;-74
2023/12/30 02:06:21;;;;;;;618.60;561.90;;;5.70;99.10;;;;;;5046241;28;20086;-74
2023/12/30 02:08:47;;;;;;;448.97;411.80;;;5.70;98.80;;;;;;5046161;28;20064;-74
2023/12/30 02:11:14;;;;;;;505.98;457.25;;;5.70;98.30;;;;;;5032559;28;20381;-73
2023/12/30 02:13:44;;;;;;;480.00;444.70;;;5.70;99.30;;;;;;5052318;28;20075;-74
2023/12/30 02:16:10;;;;;;;580.00;532.13;;;5.70;99.70;;;;;;5029179;28;20119;-74
2023/12/30 02:18:37;;;;;;;492.60;454.80;;;5.70;99.20;;;;;;5029383;28;20099;-74
2023/12/30 02:21:04;;;;;;;339.90;316.33;;;5.70;99.60;;;;;;5045124;28;20120;-73
2023/12/30 02:23:29;;;;;;;387.30;359.88;;;5.70;99.20;;;;;;5041544;28;20076;-75
2023/12/30 02:25:55;;;;;;;473.00;435.87;;;5.70;99.40;;;;;;5026643;28;20077;-74
2023/12/30 02:28:21;;;;;;;561.80;515.13;;;5.60;99.30;;;;;;5033266;28;20037;-75
2023/12/30 02:30:47;;;;;;;491.17;451.27;;;5.70;99.20;;;;;;5052226;28;20102;-75
2023/12/30 02:33:12;;;;;;;556.90;509.77;;;5.70;99.80;;;;;;5046607;28;20041;-75
2023/12/30 02:35:42;;;;;;;506.43;466.03;;;5.70;99.60;;;;;;5035734;28;20604;-75
2023/12/30 02:38:08;;;;;;;708.80;633.50;;;5.70;99.90;;;;;;5046863;28;20462;-76
2023/12/30 02:40:34;;;;;;;462.75;427.42;;;5.60;99.70;;;;;;5046757;28;20544;-75
2023/12/30 02:42:59;;;;;;;384.93;357.07;;;5.60;99.90;;;;;;5029622;28;20068;-74
2023/12/30 02:45:25;;;;;;;429.20;397.90;;;5.60;99.90;;;;;;5046059;28;20516;-74
2023/12/30 02:47:51;;;;;;;340.17;316.83;;;5.50;99.90;;;;;;5050274;28;20594;-75
2023/12/30 02:50:17;;;;;;;476.53;437.83;;;5.50;99.90;;;;;;5050273;28;20432;-75
2023/12/30 02:52:42;;;;;;;479.07;441.27;;;5.40;99.90;;;;;;5044360;28;20052;-75
2023/12/30 02:55:08;;;;;;;528.60;487.70;;;5.40;99.90;;;;;;5050114;28;20040;-74
2023/12/30 02:57:34;;;;;;;605.20;553.03;;;5.50;99.90;;;;;;5033867;28;20045;-75
2023/12/30 03:00:00;;;;;;;559.03;512.17;;;5.60;99.90;;;;;;5047129;28;20071;-75
2023/12/30 03:02:25;;;;;;;835.37;707.00;;;5.60;99.90;;;;;;5049579;28;20041;-74
2023/12/30 03:04:51;;;;;;;588.73;540.17;;;5.70;99.90;;;;;;5045152;28;20048;-75
2023/12/30 03:07:17;;;;;;;454.90;419.80;;;5.80;99.90;;;;;;5050616;28;20033;-75
2023/12/30 03:09:43;;;;;;;765.03;666.20;;;5.90;99.60;;;;;;5034234;28;20537;-75
2023/12/30 03:12:09;;;;;;;439.97;405.33;;;5.90;99.60;;;;;;5049921;28;20303;-75
2023/12/30 03:14:35;;;;;;;682.30;609.00;;;5.90;99.40;;;;;;5049002;28;20097;-75
2023/12/30 03:17:01;;;;;;;598.20;538.20;;;5.90;98.60;;;;;;5034615;28;20524;-75
2023/12/30 03:19:27;;;;;;;630.70;572.17;;;5.90;97.90;;;;;;5033386;28;20432;-75
2023/12/30 03:21:53;;;;;;;458.13;423.20;;;5.80;98.40;;;;;;5049831;28;20041;-75
2023/12/30 03:24:19;;;;;;;356.10;331.40;;;5.80;98.30;;;;;;5048919;28;20111;-74
2023/12/30 03:26:45;;;;;;;446.37;408.60;;;5.70;98.50;;;;;;5032218;28;20156;-75
2023/12/30 03:29:11;;;;;;;594.10;544.60;;;5.70;98.30;;;;;;5027852;28;20287;-74
2023/12/30 03:31:37;;;;;;;457.67;422.27;;;5.70;98.30;;;;;;5031425;28;20041;-74
2023/12/30 03:34:02;;;;;;;446.87;413.77;;;5.70;99.00;;;;;;5028784;28;20045;-74
2023/12/30 03:36:28;;;;;;;607.80;552.00;;;5.70;99.10;;;;;;5034254;28;20075;-74
2023/12/30 03:38:54;;;;;;;360.27;334.03;;;5.70;98.80;;;;;;5032300;28;20049;-74
2023/12/30 03:41:20;;;;;;;479.03;436.47;;;5.70;98.80;;;;;;5048401;28;20036;-73
2023/12/30 03:43:47;;;;;;;510.20;467.25;;;5.70;98.60;;;;;;5021447;28;20600;-75
2023/12/30 03:46:13;;;;;;;421.75;390.30;;;5.80;98.20;;;;;;5022233;28;20038;-75
2023/12/30 03:48:38;;;;;;;416.13;384.63;;;5.70;98.20;;;;;;5048487;28;20484;-74
2023/12/30 03:51:05;;;;;;;663.90;596.00;;;5.70;98.20;;;;;;5031144;28;20511;-74
2023/12/30 03:53:32;;;;;;;489.63;450.45;;;5.70;99.10;;;;;;5048663;28;20504;-74
2023/12/30 03:55:58;;;;;;;457.58;422.70;;;5.60;99.00;;;;;;5042186;28;20044;-74
2023/12/30 03:58:24;;;;;;;658.33;597.08;;;5.60;99.00;;;;;;5027203;28;20401;-75
2023/12/30 04:00:49;;;;;;;494.60;451.97;;;5.50;99.50;;;;;;5032531;28;20140;-74
2023/12/30 04:03:15;;;;;;;465.43;429.30;;;5.50;99.20;;;;;;5048090;28;20078;-75
2023/12/30 04:05:41;;;;;;;464.83;423.63;;;5.50;99.20;;;;;;5028393;28;20513;-74
2023/12/30 04:08:07;;;;;;;440.93;407.47;;;5.50;99.00;;;;;;5048673;28;20041;-74
2023/12/30 04:10:33;;;;;;;443.37;408.70;;;5.50;99.50;;;;;;5024361;28;20037;-74
2023/12/30 04:12:58;;;;;;;512.67;469.47;;;5.40;99.80;;;;;;5048917;28;20071;-74
2023/12/30 04:15:24;;;;;;;417.90;387.27;;;5.50;99.80;;;;;;5048513;28;20033;-74
2023/12/30 04:17:49;;;;;;;529.93;487.27;;;5.50;99.90;;;;;;5031668;28;20954;-73
2023/12/30 04:20:15;;;;;;;557.50;508.07;;;5.40;99.90;;;;;;5046834;28;20029;-74
2023/12/30 04:22:41;;;;;;;565.27;515.10;;;5.40;99.90;;;;;;5031916;28;20068;-75
2023/12/30 04:25:07;;;;;;;471.33;433.67;;;5.40;99.90;;;;;;5048921;28;20032;-75
2023/12/30 04:27:33;;;;;;;429.25;393.60;;;5.50;99.90;;;;;;5047239;28;20053;-74
2023/12/30 04:29:58;;;;;;;384.00;355.77;;;5.50;99.90;;;;;;5048267;28;20448;-74
2023/12/30 04:32:24;;;;;;;377.97;351.07;;;5.50;99.90;;;;;;5045994;28;20555;-75
2023/12/30 04:34:51;;;;;;;346.43;322.00;;;5.60;99.90;;;;;;5045286;28;20045;-75
2023/12/30 04:37:17;;;;;;;458.10;422.55;;;5.60;99.90;;;;;;5028115;28;20033;-75
2023/12/30 04:39:43;;;;;;;500.00;458.83;;;5.60;99.90;;;;;;5030626;28;20041;-74
2023/12/30 04:42:09;;;;;;;445.93;412.57;;;5.50;99.90;;;;;;5047048;28;20044;-75
2023/12/30 04:44:35;;;;;;;437.70;404.05;;;5.50;99.90;;;;;;5048415;28;20044;-74
2023/12/30 04:47:01;;;;;;;510.57;467.57;;;5.50;99.90;;;;;;5048308;28;20029;-75
2023/12/30 04:49:26;;;;;;;495.33;456.03;;;5.50;99.90;;;;;;5048314;28;20035;-75
2023/12/30 04:51:52;;;;;;;436.40;402.53;;;5.40;99.90;;;;;;5047563;28;20068;-75
2023/12/30 04:54:18;;;;;;;317.80;294.77;;;5.40;99.90;;;;;;5048148;28;20745;-75
2023/12/30 04:56:43;;;;;;;355.67;329.93;;;5.40;99.90;;;;;;5043854;28;20045;-74
2023/12/30 04:59:09;;;;;;;345.03;321.47;;;5.40;99.90;;;;;;5048065;28;20187;-74
2023/12/30 05:01:35;;;;;;;484.87;445.10;;;5.40;99.90;;;;;;5048697;28;20449;-74
2023/12/30 05:04:01;;;;;;;588.70;532.53;;;5.40;99.90;;;;;;5047270;28;20396;-75
2023/12/30 05:06:29;;;;;;;373.95;346.75;;;5.40;99.90;;;;;;5043251;28;20051;-74
2023/12/30 05:08:55;;;;;;;323.50;297.35;;;5.50;99.90;;;;;;5046719;28;20090;-75
2023/12/30 05:11:24;;;;;;;557.53;509.98;;;5.50;99.90;;;;;;5045416;28;20036;-74
2023/12/30 05:13:50;;;;;;;426.23;393.70;;;5.60;99.90;;;;;;5026725;28;20056;-74
2023/12/30 05:16:16;;;;;;;536.20;492.47;;;5.70;99.90;;;;;;5047534;28;20048;-74
2023/12/30 05:18:41;;;;;;;382.17;354.03;;;5.80;99.90;;;;;;5049369;28;20469;-74
2023/12/30 05:21:14;;;;;;;509.13;465.30;;;5.80;99.80;;;;;;5031868;28;20049;-75
2023/12/30 05:23:41;;;;;;;441.42;408.33;;;5.90;99.90;;;;;;5047790;28;20047;-74
2023/12/30 05:26:07;;;;;;;467.85;430.48;;;6.00;99.40;;;;;;5026870;28;20119;-76
2023/12/30 05:28:33;;;;;;;477.23;440.38;;;6.00;99.00;;;;;;5045320;28;20393;-74
2023/12/30 05:30:59;;;;;;;425.20;392.75;;;5.90;99.00;;;;;;5043869;28;20102;-74
2023/12/30 05:33:25;;;;;;;408.47;378.30;;;5.90;99.20;;;;;;5043735;28;20045;-74
2023/12/30 05:35:51;;;;;;;400.17;369.97;;;5.90;99.00;;;;;;5027284;28;20056;-75
2023/12/30 05:38:16;;;;;;;463.85;425.55;;;5.80;99.80;;;;;;5030261;28;20524;-75
2023/12/30 05:40:42;;;;;;;331.07;307.93;;;5.70;99.50;;;;;;5030856;28;20073;-75
2023/12/30 05:43:08;;;;;;;390.03;360.70;;;5.70;99.90;;;;;;5043959;28;20525;-74
2023/12/30 05:45:34;;;;;;;342.73;319.73;;;5.70;99.90;;;;;;5021325;28;20038;-74
2023/12/30 05:48:01;;;;;;;552.13;506.88;;;5.70;99.90;;;;;;5026356;28;20044;-74
2023/12/30 05:50:27;;;;;;;332.20;308.60;;;5.70;99.90;;;;;;5029743;28;20037;-74
2023/12/30 05:52:53;;;;;;;390.17;362.52;;;5.70;99.90;;;;;;5047069;28;20083;-74
2023/12/30 05:55:19;;;;;;;467.98;431.65;;;5.70;99.90;;;;;;5027017;28;20382;-75
2023/12/30 05:57:46;;;;;;;440.63;408.50;;;5.80;99.90;;;;;;5030645;28;20052;-74
2023/12/30 06:00:13;;;;;;;375.05;348.83;;;5.80;99.90;;;;;;5046766;28;20041;-74
2023/12/30 06:02:38;;;;;;;358.80;333.88;;;5.80;99.90;;;;;;5051212;28;20041;-75
2023/12/30 06:05:05;;;;;;;371.80;345.10;;;5.90;99.90;;;;;;5046184;28;20048;-74
2023/12/30 06:07:30;;;;;;;486.55;446.70;;;5.90;99.90;;;;;;5050967;28;20084;-74
2023/12/30 06:09:56;;;;;;;588.07;531.57;;;5.90;99.90;;;;;;5034807;28;20134;-74
2023/12/30 06:12:22;;;;;;;430.37;397.67;;;6.00;99.90;;;;;;5034194;28;20054;-75
2023/12/30 06:14:47;;;;;;;520.27;471.87;;;6.00;99.50;;;;;;5044143;28;20041;-75
2023/12/30 06:17:13;;;;;;;350.43;325.67;;;6.00;99.10;;;;;;5050367;28;20509;-75
2023/12/30 06:19:39;;;;;;;389.27;360.40;;;5.80;99.20;;;;;;5050946;28;20117;-75
2023/12/30 06:22:05;;;;;;;881.20;738.93;;;5.80;99.20;;;;;;5050888;28;20041;-75
2023/12/30 06:24:30;;;;;;;396.90;366.20;;;5.70;99.90;;;;;;5050727;28;20041;-74
2023/12/30 06:26:56;;;;;;;484.70;442.87;;;5.70;99.90;;;;;;5050652;28;20052;-75
2023/12/30 06:29:25;;;;;;;422.70;389.43;;;5.60;99.90;;;;;;5050880;28;20127;-75
2023/12/30 06:31:51;;;;;;;370.33;343.48;;;5.60;99.90;;;;;;5048012;28;20124;-74
2023/12/30 06:34:17;;;;;;;533.47;489.27;;;5.50;99.90;;;;;;5033101;28;20186;-75
2023/12/30 06:36:45;;;;;;;490.20;449.73;;;5.50;99.90;;;;;;5030160;28;20439;-75
2023/12/30 06:39:12;;;;;;;511.10;468.60;;;5.50;99.90;;;;;;5029852;28;20045;-75
2023/12/30 06:41:39;;;;;;;384.75;358.35;;;5.50;99.90;;;;;;5048451;28;20041;-75
2023/12/30 06:44:04;;;;;;;400.00;371.48;;;5.50;99.90;;;;;;5044278;28;20049;-75
2023/12/30 06:46:30;;;;;;;335.50;311.73;;;5.50;99.90;;;;;;5034141;28;20111;-75
2023/12/30 06:48:55;;;;;;;372.77;345.93;;;5.50;99.90;;;;;;5030518;28;20045;-75
2023/12/30 06:51:21;;;;;;;369.67;343.80;;;5.50;99.90;;;;;;5047249;28;20052;-75
2023/12/30 06:53:47;;;;;;;367.30;341.67;;;5.50;99.90;;;;;;5033635;28;20398;-75
2023/12/30 06:56:13;;;;;;;693.23;626.07;;;5.50;99.90;;;;;;5050633;28;20048;-74
2023/12/30 06:58:38;;;;;;;480.40;440.43;;;5.40;99.90;;;;;;5045095;28;20045;-75
2023/12/30 07:01:07;;;;;;;320.77;298.17;;;5.40;99.90;;;;;;5048982;28;20049;-74
2023/12/30 07:03:32;;;;;;;503.48;458.60;;;5.40;99.90;;;;;;5049466;28;20037;-74
2023/12/30 07:05:58;;;;;;;330.30;307.83;;;5.40;99.90;;;;;;5049030;28;20037;-74
2023/12/30 07:08:24;;;;;;;343.10;317.57;;;5.40;99.90;;;;;;5045878;28;20094;-74
2023/12/30 07:10:49;;;;;;;407.07;375.93;;;5.40;99.90;;;;;;5033008;28;20040;-74
2023/12/30 07:13:15;;;;;;;362.17;335.93;;;5.50;99.90;;;;;;5048379;28;20040;-74
2023/12/30 07:15:41;;;;;;;478.47;437.80;;;5.60;99.90;;;;;;5027854;28;20499;-74
2023/12/30 07:18:07;;;;;;;506.97;461.40;;;5.60;99.90;;;;;;5049348;28;20044;-74
2023/12/30 07:20:34;;;;;;;361.60;334.30;;;5.60;99.90;;;;;;5032571;28;20051;-74
2023/12/30 07:23:02;;;;;;;324.95;301.63;;;5.60;99.90;;;;;;5027567;28;20049;-74
2023/12/30 07:25:28;;;;;;;350.60;325.70;;;5.60;99.90;;;;;;5047104;28;20123;-74
2023/12/30 07:27:53;;;;;;;391.20;362.05;;;5.70;99.90;;;;;;5025780;28;20055;-74
2023/12/30 07:30:19;;;;;;;511.80;461.83;;;5.70;99.90;;;;;;5032750;28;20040;-74
2023/12/30 07:32:45;;;;;;;395.70;365.50;;;5.70;99.90;;;;;;5048184;28;20041;-75
2023/12/30 07:35:10;;;;;;;507.20;464.73;;;5.70;99.90;;;;;;5029637;28;20154;-74
2023/12/30 07:37:37;;;;;;;343.40;319.37;;;5.70;99.90;;;;;;5031770;28;20048;-74
2023/12/30 07:40:03;;;;;;;346.60;323.17;;;5.70;99.90;;;;;;5022396;28;20044;-74
2023/12/30 07:42:29;;;;;;;465.95;428.42;;;5.70;99.90;;;;;;5044466;28;20527;-74
2023/12/30 07:44:55;;;;;;;440.50;408.57;;;5.60;99.90;;;;;;5045260;28;20036;-74
2023/12/30 07:47:21;;;;;;;460.80;425.07;;;5.50;99.90;;;;;;5048293;28;20792;-74
2023/12/30 07:49:47;;;;;;;810.37;636.80;;;5.50;99.90;;;;;;5045066;28;20053;-74
2023/12/30 07:52:13;;;;;;;371.65;344.50;;;5.40;99.90;;;;;;5042697;28;20037;-74
2023/12/30 07:54:39;;;;;;;290.40;269.87;;;5.30;99.90;;;;;;5049126;28;20460;-73
2023/12/30 07:57:05;;;;;;;357.53;331.40;;;5.30;99.90;;;;;;5047846;28;20032;-74
2023/12/30 07:59:30;;;;;;;520.30;477.33;;;5.20;99.90;;;;;;5032420;28;20503;-74
2023/12/30 08:01:56;;;;;;;424.67;392.50;;;5.10;99.90;;;;;;5029942;28;20052;-73
2023/12/30 08:04:25;;;;;;;330.90;308.07;;;5.10;99.90;;;;;;5045000;28;20056;-74
2023/12/30 08:06:51;;;;;;;289.60;269.25;;;5.00;99.90;;;;;;5036952;28;20337;-74
2023/12/30 08:09:17;;;;;;;328.67;305.17;;;5.00;99.90;;;;;;5049150;28;20040;-75
2023/12/30 08:11:43;;;;;;;371.98;341.52;;;5.00;99.90;;;;;;5048988;28;20043;-74
2023/12/30 08:14:09;;;;;;;373.33;346.73;;;4.90;99.90;;;;;;5027217;28;20044;-74
2023/12/30 08:16:36;;;;;;;472.03;436.13;;;5.00;99.90;;;;;;5037979;28;20080;-74
2023/12/30 08:19:04;;;;;;;366.33;339.95;;;5.00;99.90;;;;;;5045966;28;20394;-74
2023/12/30 08:21:31;;;;;;;507.75;465.63;;;5.10;99.90;;;;;;5031054;28;20044;-74
2023/12/30 08:23:58;;;;;;;569.60;517.10;;;5.20;99.90;;;;;;5026234;28;20068;-74
2023/12/30 08:26:25;;;;;;;427.40;397.10;;;5.30;99.90;;;;;;5043766;28;20044;-75
2023/12/30 08:28:51;;;;;;;310.98;290.40;;;5.30;99.90;;;;;;5021680;28;20567;-75
2023/12/30 08:31:18;;;;;;;422.27;392.17;;;5.30;99.90;;;;;;5023236;28;20375;-74
2023/12/30 08:33:44;;;;;;;334.60;312.25;;;5.40;99.90;;;;;;5041305;28;20045;-74
2023/12/30 08:36:10;;;;;;;375.83;348.67;;;5.50;99.90;;;;;;5040498;28;20509;-74
2023/12/30 08:38:43;;;;;;;450.87;417.03;;;5.50;99.90;;;;;;5039072;28;20084;-75
2023/12/30 08:41:14;;;;;;;466.83;431.83;;;5.60;99.90;;;;;;5042587;28;20047;-75
2023/12/30 08:43:42;;;;;;;348.85;325.17;;;5.60;99.90;;;;;;5024370;28;20038;-74
2023/12/30 08:46:08;;;;;;;447.48;413.60;;;5.70;99.90;;;;;;5048918;28;20494;-74
2023/12/30 08:48:34;;;;;;;538.13;494.55;;;5.70;99.90;;;;;;5047864;28;20175;-75
2023/12/30 08:51:00;;;;;;;610.77;556.57;;;5.70;99.90;;;;;;5028702;28;20556;-74
2023/12/30 08:53:26;;;;;;;482.08;444.80;;;5.80;99.90;;;;;;5047119;28;20565;-75
2023/12/30 08:55:52;;;;;;;381.13;352.67;;;5.80;99.90;;;;;;5041645;28;20041;-75
2023/12/30 08:58:18;;;;;;;464.73;426.67;;;5.80;99.90;;;;;;5045963;28;20037;-74
2023/12/30 09:00:44;;;;;;;339.73;315.95;;;5.80;99.90;;;;;;5025084;28;20580;-74
2023/12/30 09:03:10;;;;;;;507.85;456.02;;;5.90;99.90;;;;;;5043451;28;20044;-74
2023/12/30 09:05:36;;;;;;;341.37;318.17;;;5.90;99.90;;;;;;5043369;28;20033;-74
2023/12/30 09:08:04;;;;;;;370.03;344.20;;;5.90;99.90;;;;;;5038564;28;20557;-74
2023/12/30 09:10:31;;;;;;;455.25;419.35;;;6.00;99.90;;;;;;5027587;28;20543;-73
2023/12/30 09:12:58;;;;;;;294.05;274.75;;;6.00;99.90;;;;;;5056170;28;20115;-73
2023/12/30 09:15:24;;;;;;;530.70;482.30;;;6.00;99.90;;;;;;5053981;28;20042;-73
2023/12/30 09:17:49;;;;;;;351.70;326.17;;;6.10;99.90;;;;;;5051655;28;20045;-74
2023/12/30 09:20:15;;;;;;;430.97;398.00;;;6.10;99.90;;;;;;5060008;28;20264;-73
2023/12/30 09:22:41;;;;;;;526.00;480.93;;;6.10;99.90;;;;;;5061392;28;20025;-73
2023/12/30 09:25:07;;;;;;;374.07;346.97;;;6.10;99.90;;;;;;5055807;28;20064;-73
2023/12/30 09:27:33;;;;;;;394.42;365.63;;;6.10;99.90;;;;;;5043808;28;20048;-73
2023/12/30 09:29:58;;;;;;;322.87;300.07;;;6.10;99.90;;;;;;5053575;28;20036;-73
2023/12/30 09:32:24;;;;;;;482.63;443.57;;;6.20;99.90;;;;;;5032807;28;20421;-73
2023/12/30 09:34:50;;;;;;;348.90;322.80;;;6.20;99.90;;;;;;5038011;28;20049;-73
2023/12/30 09:37:17;;;;;;;426.93;395.73;;;6.10;99.90;;;;;;5057863;28;20049;-73
2023/12/30 09:39:43;;;;;;;573.38;522.38;;;6.10;99.90;;;;;;5056376;28;20072;-73
2023/12/30 09:42:09;;;;;;;334.83;312.57;;;6.10;99.90;;;;;;5060543;28;20041;-73
2023/12/30 09:44:35;;;;;;;520.07;476.27;;;6.10;99.90;;;;;;5058848;28;20048;-73
2023/12/30 09:47:07;;;;;;;418.88;388.00;;;6.10;99.90;;;;;;5063474;28;21316;-73
2023/12/30 09:49:37;;;;;;;344.80;320.67;;;6.00;99.90;;;;;;5035877;28;20146;-73
2023/12/30 09:52:07;;;;;;;430.83;396.65;;;6.00;99.90;;;;;;5050713;28;20403;-73
2023/12/30 09:54:37;;;;;;;352.58;327.63;;;6.00;99.90;;;;;;5049300;28;20041;-73
2023/12/30 09:57:03;;;;;;;366.98;340.55;;;6.00;99.90;;;;;;5054379;28;20128;-73
2023/12/30 09:59:35;;;;;;;348.40;323.80;;;6.00;99.90;;;;;;5052939;28;20044;-74
2023/12/30 10:02:03;;;;;;;323.20;299.67;;;6.00;99.90;;;;;;5067535;28;20098;-74
2023/12/30 10:04:29;;;;;;;336.42;314.08;;;6.00;99.90;;;;;;5063521;28;20033;-73
2023/12/30 10:06:56;;;;;;;372.03;346.07;;;5.90;99.90;;;;;;5057399;28;20041;-74
2023/12/30 10:09:22;;;;;;;386.02;357.27;;;5.90;99.90;;;;;;5069535;28;20060;-74
2023/12/30 10:11:49;;;;;;;402.20;372.42;;;5.90;99.90;;;;;;5074636;28;20087;-74
2023/12/30 10:14:15;;;;;;;489.08;451.25;;;6.00;99.90;;;;;;5068276;28;20028;-74
2023/12/30 10:16:41;;;;;;;376.80;349.35;;;6.00;99.90;;;;;;5073766;28;20067;-74
2023/12/30 10:19:14;;;;;;;380.43;353.90;;;6.00;99.90;;;;;;5050499;28;20036;-74
2023/12/30 10:21:40;;;;;;;255.07;239.23;;;6.00;99.90;;;;;;5069830;28;20386;-74
2023/12/30 10:24:06;;;;;;;477.73;440.60;;;6.00;99.90;;;;;;5068731;28;20040;-73
2023/12/30 10:26:33;;;;;;;407.20;376.83;;;6.10;99.90;;;;;;5068116;28;20044;-68
2023/12/30 10:29:00;;;;;;;337.73;314.30;;;6.10;99.90;;;;;;5062758;28;20041;-67
2023/12/30 10:31:26;;;;;;;489.65;449.85;;;6.10;99.90;;;;;;5066874;28;20033;-69
2023/12/30 10:33:54;;;;;;;436.97;402.87;;;6.20;99.90;;;;;;5047332;28;20048;-69
2023/12/30 10:36:20;;;;;;;360.20;334.27;;;6.20;99.90;;;;;;5056312;28;20041;-73
2023/12/30 10:38:46;;;;;;;217.90;204.90;;;6.30;99.90;;;;;;5056564;28;20072;-73
2023/12/30 10:41:12;;;;;;;331.58;308.83;;;6.30;99.90;;;;;;5043136;28;20037;-73
2023/12/30 10:43:38;;;;;;;291.17;270.02;;;6.30;99.90;;;;;;5068245;28;20037;-74
2023/12/30 10:46:10;;;;;;;381.17;353.42;;;6.40;99.90;;;;;;5073023;28;20047;-73
2023/12/30 10:48:52;;;;;;;297.92;277.35;;;6.40;99.90;;;;;;5059117;28;20089;-74
2023/12/30 10:51:24;;;;;;;262.75;245.55;;;6.50;99.90;;;;;;5081008;28;20120;-74
2023/12/30 10:54:00;;;;;;;335.77;310.50;;;6.50;99.90;;;;;;5068123;28;20058;-74
2023/12/30 10:56:29;;;;;;;340.13;318.00;;;6.50;99.90;;;;;;5056700;28;20151;-74
2023/12/30 10:59:03;;;;;;;262.88;246.02;;;6.50;99.90;;;;;;5076832;28;20029;-73
2023/12/30 11:01:29;;;;;;;327.23;305.60;;;6.60;99.90;;;;;;5056850;28;20037;-74
2023/12/30 11:03:55;;;;;;;447.70;411.63;;;6.60;99.90;;;;;;5074825;28;20105;-74
2023/12/30 11:06:28;;;;;;;483.23;445.58;;;6.70;99.90;;;;;;5058093;28;20064;-73
2023/12/30 11:09:11;;;;;;;308.23;287.27;;;6.80;99.90;;;;;;5076149;28;20037;-73
2023/12/30 11:11:52;;;;;;;317.92;295.85;;;6.80;99.90;;;;;;5055260;28;20092;-73
2023/12/30 11:14:21;;;;;;;408.70;376.30;;;6.90;99.60;;;;;;5055150;28;20071;-73
2023/12/30 11:16:50;;;;;;;377.80;352.65;;;6.90;98.70;;;;;;5075228;28;20039;-73
2023/12/30 11:19:27;;;;;;;416.58;387.98;;;7.00;99.00;;;;;;5052727;28;20032;-73
2023/12/30 11:21:58;;;;;;;346.85;322.88;;;7.00;98.30;;;;;;5067782;28;20145;-73
2023/12/30 11:24:26;;;;;;;341.75;318.20;;;7.10;98.60;;;;;;5073637;28;20050;-73
2023/12/30 11:26:53;;;;;;;371.45;344.42;;;7.10;98.00;;;;;;5052406;28;20065;-73
2023/12/30 11:29:25;;;;;;;360.67;336.08;;;7.00;97.50;;;;;;5040964;28;20029;-73
2023/12/30 11:31:52;;;;;;;340.55;317.98;;;7.10;97.50;;;;;;5065403;28;20120;-73
2023/12/30 11:34:19;;;;;;;309.80;288.92;;;7.10;97.70;;;;;;5071914;28;20036;-73
2023/12/30 11:36:46;;;;;;;400.55;371.65;;;7.20;98.20;;;;;;5049541;28;20060;-74
2023/12/30 11:39:22;;;;;;;406.83;377.58;;;7.20;98.80;;;;;;5073962;28;20032;-73
2023/12/30 11:41:49;;;;;;;455.75;422.30;;;7.20;99.90;;;;;;5077136;28;20033;-73
2023/12/30 11:44:14;;;;;;;361.70;336.90;;;7.20;99.90;;;;;;5076496;28;20096;-74
2023/12/30 11:46:41;;;;;;;472.63;435.80;;;7.30;99.90;;;;;;5054106;28;20049;-73
2023/12/30 11:49:07;;;;;;;589.05;539.55;;;7.30;99.90;;;;;;5073348;28;20064;-74
2023/12/30 11:51:33;;;;;;;546.83;500.80;;;7.30;99.90;;;;;;5068774;28;20079;-73
2023/12/30 11:54:05;;;;;;;497.47;459.00;;;7.40;99.90;;;;;;5045582;28;20037;-74
2023/12/30 11:56:32;;;;;;;549.00;504.10;;;7.40;99.90;;;;;;5067326;28;20033;-74
2023/12/30 11:59:00;;;;;;;737.47;665.55;;;7.40;99.90;;;;;;5048710;28;20033;-74
2023/12/30 12:01:26;;;;;;;580.05;531.45;;;7.40;99.90;;;;;;5083723;28;20074;-74
2023/12/30 12:03:52;;;;;;;423.97;392.63;;;7.40;99.90;;;;;;5053289;28;20037;-73
2023/12/30 12:06:18;;;;;;;469.20;431.53;;;7.40;99.90;;;;;;5071301;28;20033;-73
2023/12/30 12:08:44;;;;;;;553.05;508.08;;;7.40;99.90;;;;;;5055303;28;20307;-73
2023/12/30 12:11:10;;;;;;;587.33;535.90;;;7.50;99.90;;;;;;5047506;28;20033;-73
2023/12/30 12:13:36;;;;;;;598.43;547.70;;;7.50;99.90;;;;;;5067536;28;20124;-74
2023/12/30 12:16:04;;;;;;;569.40;520.00;;;7.50;99.90;;;;;;5050720;28;20037;-73